sensor_id;sensor_type;location;lat;lon;timestamp;temperature;humidity
56240;DHT22;42154;51.992;5.896;2022-10-31T00:02:05;13.60;99.90
56240;DHT22;42154;51.992;5.896;2022-10-31T00:04:31;13.50;99.90
56240;DHT22;42154;51.992;5.896;2022-10-31T00:06:57;13.50;99.90
56240;DHT22;42154;51.992;5.896;2022-10-31T00:09:22;13.50;99.90
56240;DHT22;42154;51.992;5.896;2022-10-31T00:11:48;13.50;99.90
56240;DHT22;42154;51.992;5.896;2022-10-31T00:14:14;13.50;99.90
56240;DHT22;42154;51.992;5.896;2022-10-31T00:16:39;13.50;99.90
56240;DHT22;42154;51.992;5.896;2022-10-31T00:19:07;13.50;99.90
56240;DHT22;42154;51.992;5.896;2022-10-31T00:21:34;13.40;99.90
56240;DHT22;42154;51.992;5.896;2022-10-31T00:24:00;13.40;99.90
56240;DHT22;42154;51.992;5.896;2022-10-31T00:26:30;13.40;99.90
56240;DHT22;42154;51.992;5.896;2022-10-31T00:28:57;13.40;99.90
56240;DHT22;42154;51.992;5.896;2022-10-31T00:31:23;13.30;99.90
56240;DHT22;42154;51.992;5.896;2022-10-31T00:33:49;13.30;99.90
56240;DHT22;42154;51.992;5.896;2022-10-31T00:36:19;13.30;99.90
56240;DHT22;42154;51.992;5.896;2022-10-31T00:38:46;13.30;99.90
56240;DHT22;42154;51.992;5.896;2022-10-31T00:41:14;13.30;99.90
56240;DHT22;42154;51.992;5.896;2022-10-31T00:43:41;13.30;99.90
56240;DHT22;42154;51.992;5.896;2022-10-31T00:46:08;13.30;99.90
56240;DHT22;42154;51.992;5.896;2022-10-31T00:48:34;13.30;99.90
56240;DHT22;42154;51.992;5.896;2022-10-31T00:50:59;13.20;99.90
56240;DHT22;42154;51.992;5.896;2022-10-31T00:53:26;13.20;99.90
56240;DHT22;42154;51.992;5.896;2022-10-31T00:55:52;13.30;99.90
56240;DHT22;42154;51.992;5.896;2022-10-31T00:58:18;13.20;99.90
56240;DHT22;42154;51.992;5.896;2022-10-31T01:00:46;13.20;99.90
56240;DHT22;42154;51.992;5.896;2022-10-31T01:03:11;13.20;99.90
56240;DHT22;42154;51.992;5.896;2022-10-31T01:05:40;13.20;99.90
56240;DHT22;42154;51.992;5.896;2022-10-31T01:08:07;13.20;99.90
56240;DHT22;42154;51.992;5.896;2022-10-31T01:10:32;13.20;99.90
56240;DHT22;42154;51.992;5.896;2022-10-31T01:12:58;13.20;99.90
56240;DHT22;42154;51.992;5.896;2022-10-31T01:15:24;13.20;99.90
56240;DHT22;42154;51.992;5.896;2022-10-31T01:17:50;13.20;99.90
56240;DHT22;42154;51.992;5.896;2022-10-31T01:20:16;13.10;99.90
56240;DHT22;42154;51.992;5.896;2022-10-31T01:22:42;13.10;99.90
56240;DHT22;42154;51.992;5.896;2022-10-31T01:25:09;13.10;99.90
56240;DHT22;42154;51.992;5.896;2022-10-31T01:27:35;13.10;99.90
56240;DHT22;42154;51.992;5.896;2022-10-31T01:30:01;13.10;99.90
56240;DHT22;42154;51.992;5.896;2022-10-31T01:32:27;13.10;99.90
56240;DHT22;42154;51.992;5.896;2022-10-31T01:34:54;13.10;99.90
56240;DHT22;42154;51.992;5.896;2022-10-31T01:37:21;13.00;99.90
56240;DHT22;42154;51.992;5.896;2022-10-31T01:39:50;13.00;99.90
56240;DHT22;42154;51.992;5.896;2022-10-31T01:42:19;13.00;99.90
56240;DHT22;42154;51.992;5.896;2022-10-31T01:44:56;13.00;99.90
56240;DHT22;42154;51.992;5.896;2022-10-31T01:47:57;13.00;99.90
56240;DHT22;42154;51.992;5.896;2022-10-31T01:50:32;13.00;99.90
56240;DHT22;42154;51.992;5.896;2022-10-31T01:53:00;12.90;99.90
56240;DHT22;42154;51.992;5.896;2022-10-31T01:55:39;12.90;99.90
56240;DHT22;42154;51.992;5.896;2022-10-31T01:58:20;12.80;99.90
56240;DHT22;42154;51.992;5.896;2022-10-31T02:00:50;12.80;99.90
56240;DHT22;42154;51.992;5.896;2022-10-31T02:03:18;12.70;99.90
56240;DHT22;42154;51.992;5.896;2022-10-31T02:05:46;12.80;99.90
56240;DHT22;42154;51.992;5.896;2022-10-31T02:08:31;12.70;99.90
56240;DHT22;42154;51.992;5.896;2022-10-31T02:10:58;12.70;99.90
56240;DHT22;42154;51.992;5.896;2022-10-31T02:13:26;12.70;99.90
56240;DHT22;42154;51.992;5.896;2022-10-31T02:15:56;12.70;99.90
56240;DHT22;42154;51.992;5.896;2022-10-31T02:18:26;12.70;99.90
56240;DHT22;42154;51.992;5.896;2022-10-31T02:21:15;12.70;99.90
56240;DHT22;42154;51.992;5.896;2022-10-31T02:23:56;12.60;99.90
56240;DHT22;42154;51.992;5.896;2022-10-31T02:26:41;12.50;99.90
56240;DHT22;42154;51.992;5.896;2022-10-31T02:32:28;12.60;99.90
56240;DHT22;42154;51.992;5.896;2022-10-31T02:35:10;12.50;99.90
56240;DHT22;42154;51.992;5.896;2022-10-31T02:40:44;12.50;99.90
56240;DHT22;42154;51.992;5.896;2022-10-31T02:46:23;12.30;99.90
56240;DHT22;42154;51.992;5.896;2022-10-31T02:48:53;12.30;99.90
56240;DHT22;42154;51.992;5.896;2022-10-31T02:51:20;12.30;99.90
56240;DHT22;42154;51.992;5.896;2022-10-31T02:53:47;12.30;99.90
56240;DHT22;42154;51.992;5.896;2022-10-31T02:56:15;12.20;99.90
56240;DHT22;42154;51.992;5.896;2022-10-31T02:58:58;12.20;99.90
56240;DHT22;42154;51.992;5.896;2022-10-31T03:01:53;12.20;99.90
56240;DHT22;42154;51.992;5.896;2022-10-31T03:04:37;12.20;99.90
56240;DHT22;42154;51.992;5.896;2022-10-31T03:09:51;12.10;99.90
56240;DHT22;42154;51.992;5.896;2022-10-31T03:14:56;12.00;99.90
56240;DHT22;42154;51.992;5.896;2022-10-31T03:17:42;12.00;99.90
56240;DHT22;42154;51.992;5.896;2022-10-31T03:20:10;11.90;99.90
56240;DHT22;42154;51.992;5.896;2022-10-31T03:22:38;11.90;99.90
56240;DHT22;42154;51.992;5.896;2022-10-31T03:25:06;11.90;99.90
56240;DHT22;42154;51.992;5.896;2022-10-31T03:27:36;11.80;99.90
56240;DHT22;42154;51.992;5.896;2022-10-31T03:30:05;11.80;99.90
56240;DHT22;42154;51.992;5.896;2022-10-31T03:32:44;11.80;99.90
56240;DHT22;42154;51.992;5.896;2022-10-31T03:35:15;11.80;99.90
56240;DHT22;42154;51.992;5.896;2022-10-31T03:37:42;11.70;99.90
56240;DHT22;42154;51.992;5.896;2022-10-31T03:40:14;11.70;99.90
56240;DHT22;42154;51.992;5.896;2022-10-31T03:42:44;11.70;99.90
56240;DHT22;42154;51.992;5.896;2022-10-31T03:45:14;11.60;99.90
56240;DHT22;42154;51.992;5.896;2022-10-31T03:47:42;11.60;99.90
56240;DHT22;42154;51.992;5.896;2022-10-31T03:50:10;11.60;99.90
56240;DHT22;42154;51.992;5.896;2022-10-31T03:52:53;11.60;99.90
56240;DHT22;42154;51.992;5.896;2022-10-31T03:55:33;11.60;99.90
56240;DHT22;42154;51.992;5.896;2022-10-31T03:58:06;11.50;99.90
56240;DHT22;42154;51.992;5.896;2022-10-31T04:00:35;11.50;99.90
56240;DHT22;42154;51.992;5.896;2022-10-31T04:03:23;11.50;99.90
56240;DHT22;42154;51.992;5.896;2022-10-31T04:05:53;11.40;99.90
56240;DHT22;42154;51.992;5.896;2022-10-31T04:08:24;11.40;99.90
56240;DHT22;42154;51.992;5.896;2022-10-31T04:10:54;11.40;99.90
56240;DHT22;42154;51.992;5.896;2022-10-31T04:13:27;11.40;99.90
56240;DHT22;42154;51.992;5.896;2022-10-31T04:16:08;11.30;99.90
56240;DHT22;42154;51.992;5.896;2022-10-31T04:18:35;11.30;99.90
56240;DHT22;42154;51.992;5.896;2022-10-31T04:21:04;11.30;99.90
56240;DHT22;42154;51.992;5.896;2022-10-31T04:23:31;11.30;99.90
56240;DHT22;42154;51.992;5.896;2022-10-31T04:25:58;11.30;99.90
56240;DHT22;42154;51.992;5.896;2022-10-31T04:28:24;11.20;99.90
56240;DHT22;42154;51.992;5.896;2022-10-31T04:30:50;11.20;99.90
56240;DHT22;42154;51.992;5.896;2022-10-31T04:33:16;11.30;99.90
56240;DHT22;42154;51.992;5.896;2022-10-31T04:35:44;11.20;99.90
56240;DHT22;42154;51.992;5.896;2022-10-31T04:38:10;11.20;99.90
56240;DHT22;42154;51.992;5.896;2022-10-31T04:40:38;11.20;99.90
56240;DHT22;42154;51.992;5.896;2022-10-31T04:43:39;11.20;99.90
56240;DHT22;42154;51.992;5.896;2022-10-31T04:46:05;11.20;99.90
56240;DHT22;42154;51.992;5.896;2022-10-31T04:48:31;11.20;99.90
56240;DHT22;42154;51.992;5.896;2022-10-31T04:51:01;11.10;99.90
56240;DHT22;42154;51.992;5.896;2022-10-31T04:53:27;11.20;99.90
56240;DHT22;42154;51.992;5.896;2022-10-31T04:56:19;11.20;99.90
56240;DHT22;42154;51.992;5.896;2022-10-31T04:58:49;11.20;99.90
56240;DHT22;42154;51.992;5.896;2022-10-31T05:01:17;11.20;99.90
56240;DHT22;42154;51.992;5.896;2022-10-31T05:03:44;11.20;99.90
56240;DHT22;42154;51.992;5.896;2022-10-31T05:06:10;11.20;99.90
56240;DHT22;42154;51.992;5.896;2022-10-31T05:08:40;11.10;99.90
56240;DHT22;42154;51.992;5.896;2022-10-31T05:11:06;11.10;99.90
56240;DHT22;42154;51.992;5.896;2022-10-31T05:13:33;11.10;99.90
56240;DHT22;42154;51.992;5.896;2022-10-31T05:16:30;11.10;99.90
56240;DHT22;42154;51.992;5.896;2022-10-31T05:19:14;11.10;99.90
56240;DHT22;42154;51.992;5.896;2022-10-31T05:22:02;11.00;99.90
56240;DHT22;42154;51.992;5.896;2022-10-31T05:24:28;11.00;99.90
56240;DHT22;42154;51.992;5.896;2022-10-31T05:26:54;11.00;99.90
56240;DHT22;42154;51.992;5.896;2022-10-31T05:29:20;11.00;99.90
56240;DHT22;42154;51.992;5.896;2022-10-31T05:31:47;11.00;99.90
56240;DHT22;42154;51.992;5.896;2022-10-31T05:34:32;11.00;99.90
56240;DHT22;42154;51.992;5.896;2022-10-31T05:37:16;11.00;99.90
56240;DHT22;42154;51.992;5.896;2022-10-31T05:39:42;11.00;99.90
56240;DHT22;42154;51.992;5.896;2022-10-31T05:42:13;11.10;99.90
56240;DHT22;42154;51.992;5.896;2022-10-31T05:44:39;11.10;99.90
56240;DHT22;42154;51.992;5.896;2022-10-31T05:47:16;11.10;99.90
56240;DHT22;42154;51.992;5.896;2022-10-31T05:50:10;11.20;99.90
56240;DHT22;42154;51.992;5.896;2022-10-31T05:52:53;11.20;99.90
56240;DHT22;42154;51.992;5.896;2022-10-31T05:55:27;11.20;99.90
56240;DHT22;42154;51.992;5.896;2022-10-31T05:58:08;11.30;99.90
56240;DHT22;42154;51.992;5.896;2022-10-31T06:00:36;11.30;99.90
56240;DHT22;42154;51.992;5.896;2022-10-31T06:03:08;11.30;99.90
56240;DHT22;42154;51.992;5.896;2022-10-31T06:05:45;11.30;99.90
56240;DHT22;42154;51.992;5.896;2022-10-31T06:08:12;11.30;99.90
56240;DHT22;42154;51.992;5.896;2022-10-31T06:10:40;11.40;99.90
56240;DHT22;42154;51.992;5.896;2022-10-31T06:13:06;11.40;99.90
56240;DHT22;42154;51.992;5.896;2022-10-31T06:15:41;11.40;99.90
56240;DHT22;42154;51.992;5.896;2022-10-31T06:18:08;11.30;99.90
56240;DHT22;42154;51.992;5.896;2022-10-31T06:20:43;11.30;99.90
56240;DHT22;42154;51.992;5.896;2022-10-31T06:23:09;11.20;99.90
56240;DHT22;42154;51.992;5.896;2022-10-31T06:25:36;11.20;99.90
56240;DHT22;42154;51.992;5.896;2022-10-31T06:28:04;11.20;99.90
56240;DHT22;42154;51.992;5.896;2022-10-31T06:30:47;11.10;99.90
56240;DHT22;42154;51.992;5.896;2022-10-31T06:33:13;11.10;99.90
56240;DHT22;42154;51.992;5.896;2022-10-31T06:35:47;11.10;99.90
56240;DHT22;42154;51.992;5.896;2022-10-31T06:38:14;11.10;99.90
56240;DHT22;42154;51.992;5.896;2022-10-31T06:40:42;11.00;99.90
56240;DHT22;42154;51.992;5.896;2022-10-31T06:43:26;11.00;99.90
56240;DHT22;42154;51.992;5.896;2022-10-31T06:46:12;11.00;99.90
56240;DHT22;42154;51.992;5.896;2022-10-31T06:48:42;11.00;99.90
56240;DHT22;42154;51.992;5.896;2022-10-31T06:51:32;11.00;99.90
56240;DHT22;42154;51.992;5.896;2022-10-31T06:53:58;11.00;99.90
56240;DHT22;42154;51.992;5.896;2022-10-31T06:56:25;11.10;99.90
56240;DHT22;42154;51.992;5.896;2022-10-31T06:58:54;11.10;99.90
56240;DHT22;42154;51.992;5.896;2022-10-31T07:01:37;11.10;99.90
56240;DHT22;42154;51.992;5.896;2022-10-31T07:04:07;11.10;99.90
56240;DHT22;42154;51.992;5.896;2022-10-31T07:06:35;11.10;99.90
56240;DHT22;42154;51.992;5.896;2022-10-31T07:09:00;11.10;99.90
56240;DHT22;42154;51.992;5.896;2022-10-31T07:11:26;11.10;99.90
56240;DHT22;42154;51.992;5.896;2022-10-31T07:13:54;11.10;99.90
56240;DHT22;42154;51.992;5.896;2022-10-31T07:16:20;11.10;99.90
56240;DHT22;42154;51.992;5.896;2022-10-31T07:18:46;11.10;99.90
56240;DHT22;42154;51.992;5.896;2022-10-31T07:21:12;11.10;99.90
56240;DHT22;42154;51.992;5.896;2022-10-31T07:23:38;11.20;99.90
56240;DHT22;42154;51.992;5.896;2022-10-31T07:26:27;11.20;99.90
56240;DHT22;42154;51.992;5.896;2022-10-31T07:28:53;11.20;99.90
56240;DHT22;42154;51.992;5.896;2022-10-31T07:31:22;11.30;99.90
56240;DHT22;42154;51.992;5.896;2022-10-31T07:33:48;11.40;99.90
56240;DHT22;42154;51.992;5.896;2022-10-31T07:36:43;11.40;99.90
56240;DHT22;42154;51.992;5.896;2022-10-31T07:39:11;11.40;99.90
56240;DHT22;42154;51.992;5.896;2022-10-31T07:41:37;11.50;99.90
56240;DHT22;42154;51.992;5.896;2022-10-31T07:44:03;11.60;99.90
56240;DHT22;42154;51.992;5.896;2022-10-31T07:46:29;11.70;99.90
56240;DHT22;42154;51.992;5.896;2022-10-31T07:49:13;11.70;99.90
56240;DHT22;42154;51.992;5.896;2022-10-31T07:52:02;11.80;99.90
56240;DHT22;42154;51.992;5.896;2022-10-31T07:54:46;11.80;99.90
56240;DHT22;42154;51.992;5.896;2022-10-31T07:57:12;11.90;99.90
56240;DHT22;42154;51.992;5.896;2022-10-31T07:59:38;12.00;99.90
56240;DHT22;42154;51.992;5.896;2022-10-31T08:02:05;12.10;99.90
56240;DHT22;42154;51.992;5.896;2022-10-31T08:04:31;12.10;99.90
56240;DHT22;42154;51.992;5.896;2022-10-31T08:07:22;12.20;99.90
56240;DHT22;42154;51.992;5.896;2022-10-31T08:09:55;12.30;99.90
56240;DHT22;42154;51.992;5.896;2022-10-31T08:12:25;12.40;99.90
56240;DHT22;42154;51.992;5.896;2022-10-31T08:14:52;12.50;99.90
56240;DHT22;42154;51.992;5.896;2022-10-31T08:17:18;12.50;99.90
56240;DHT22;42154;51.992;5.896;2022-10-31T08:19:54;12.60;99.90
56240;DHT22;42154;51.992;5.896;2022-10-31T08:22:24;12.70;99.90
56240;DHT22;42154;51.992;5.896;2022-10-31T08:24:50;12.80;99.90
56240;DHT22;42154;51.992;5.896;2022-10-31T08:27:16;12.90;99.90
56240;DHT22;42154;51.992;5.896;2022-10-31T08:29:42;12.90;99.90
56240;DHT22;42154;51.992;5.896;2022-10-31T08:32:08;13.00;99.90
56240;DHT22;42154;51.992;5.896;2022-10-31T08:34:52;13.00;99.90
56240;DHT22;42154;51.992;5.896;2022-10-31T08:37:56;13.00;99.90
56240;DHT22;42154;51.992;5.896;2022-10-31T08:40:26;13.00;99.90
56240;DHT22;42154;51.992;5.896;2022-10-31T08:43:03;13.10;99.90
56240;DHT22;42154;51.992;5.896;2022-10-31T08:45:31;13.10;99.90
56240;DHT22;42154;51.992;5.896;2022-10-31T08:48:20;13.10;99.90
56240;DHT22;42154;51.992;5.896;2022-10-31T08:50:45;13.20;99.90
56240;DHT22;42154;51.992;5.896;2022-10-31T08:53:16;13.20;99.90
56240;DHT22;42154;51.992;5.896;2022-10-31T08:55:46;13.20;99.90
56240;DHT22;42154;51.992;5.896;2022-10-31T08:58:24;13.30;99.90
56240;DHT22;42154;51.992;5.896;2022-10-31T09:00:54;13.30;99.90
56240;DHT22;42154;51.992;5.896;2022-10-31T09:03:29;13.40;99.90
56240;DHT22;42154;51.992;5.896;2022-10-31T09:06:01;13.50;99.90
56240;DHT22;42154;51.992;5.896;2022-10-31T09:08:30;13.70;99.90
56240;DHT22;42154;51.992;5.896;2022-10-31T09:10:57;13.80;99.90
56240;DHT22;42154;51.992;5.896;2022-10-31T09:13:49;13.80;99.90
56240;DHT22;42154;51.992;5.896;2022-10-31T09:16:33;13.90;99.90
56240;DHT22;42154;51.992;5.896;2022-10-31T09:19:00;14.10;99.90
56240;DHT22;42154;51.992;5.896;2022-10-31T09:21:26;14.20;99.90
56240;DHT22;42154;51.992;5.896;2022-10-31T09:23:52;14.20;99.90
56240;DHT22;42154;51.992;5.896;2022-10-31T09:26:19;14.30;99.90
56240;DHT22;42154;51.992;5.896;2022-10-31T09:29:07;14.30;99.90
56240;DHT22;42154;51.992;5.896;2022-10-31T09:31:36;14.40;99.90
56240;DHT22;42154;51.992;5.896;2022-10-31T09:34:09;14.50;99.90
56240;DHT22;42154;51.992;5.896;2022-10-31T09:36:39;14.50;99.90
56240;DHT22;42154;51.992;5.896;2022-10-31T09:39:12;14.60;99.90
56240;DHT22;42154;51.992;5.896;2022-10-31T09:50:52;14.80;99.90
56240;DHT22;42154;51.992;5.896;2022-10-31T09:53:52;14.80;99.90
56240;DHT22;42154;51.992;5.896;2022-10-31T09:56:22;14.90;99.90
56240;DHT22;42154;51.992;5.896;2022-10-31T09:58:56;15.00;99.90
56240;DHT22;42154;51.992;5.896;2022-10-31T10:01:59;15.10;99.90
56240;DHT22;42154;51.992;5.896;2022-10-31T10:14:04;15.20;99.90
56240;DHT22;42154;51.992;5.896;2022-10-31T10:17:22;15.30;99.90
56240;DHT22;42154;51.992;5.896;2022-10-31T10:20:07;15.40;99.90
56240;DHT22;42154;51.992;5.896;2022-10-31T10:25:24;15.50;99.90
56240;DHT22;42154;51.992;5.896;2022-10-31T10:28:13;15.50;99.90
56240;DHT22;42154;51.992;5.896;2022-10-31T10:31:03;15.50;99.90
56240;DHT22;42154;51.992;5.896;2022-10-31T10:33:35;15.60;99.90
56240;DHT22;42154;51.992;5.896;2022-10-31T10:36:19;15.60;99.90
56240;DHT22;42154;51.992;5.896;2022-10-31T10:38:53;15.60;99.90
56240;DHT22;42154;51.992;5.896;2022-10-31T10:41:23;15.60;99.90
56240;DHT22;42154;51.992;5.896;2022-10-31T10:43:50;15.60;99.90
56240;DHT22;42154;51.992;5.896;2022-10-31T10:51:56;15.70;99.90
56240;DHT22;42154;51.992;5.896;2022-10-31T11:00:12;15.80;99.90
56240;DHT22;42154;51.992;5.896;2022-10-31T11:02:41;15.90;99.90
56240;DHT22;42154;51.992;5.896;2022-10-31T11:05:17;16.00;99.90
56240;DHT22;42154;51.992;5.896;2022-10-31T11:07:44;16.20;99.90
56240;DHT22;42154;51.992;5.896;2022-10-31T11:10:14;16.30;99.90
56240;DHT22;42154;51.992;5.896;2022-10-31T11:12:41;16.40;99.90
56240;DHT22;42154;51.992;5.896;2022-10-31T11:15:22;16.50;99.90
56240;DHT22;42154;51.992;5.896;2022-10-31T11:17:50;16.60;99.90
56240;DHT22;42154;51.992;5.896;2022-10-31T11:22:44;16.70;99.90
56240;DHT22;42154;51.992;5.896;2022-10-31T11:27:46;16.80;99.90
56240;DHT22;42154;51.992;5.896;2022-10-31T11:30:15;16.80;99.90
56240;DHT22;42154;51.992;5.896;2022-10-31T11:32:48;16.80;99.90
56240;DHT22;42154;51.992;5.896;2022-10-31T11:35:17;16.80;99.90
56240;DHT22;42154;51.992;5.896;2022-10-31T11:37:46;16.80;99.90
56240;DHT22;42154;51.992;5.896;2022-10-31T11:40:21;16.70;99.90
56240;DHT22;42154;51.992;5.896;2022-10-31T11:42:49;16.70;99.90
56240;DHT22;42154;51.992;5.896;2022-10-31T11:47:54;16.70;99.90
56240;DHT22;42154;51.992;5.896;2022-10-31T11:50:35;16.70;99.90
56240;DHT22;42154;51.992;5.896;2022-10-31T11:53:03;16.70;99.90
56240;DHT22;42154;51.992;5.896;2022-10-31T11:55:38;16.70;99.90
56240;DHT22;42154;51.992;5.896;2022-10-31T11:58:20;16.70;99.90
56240;DHT22;42154;51.992;5.896;2022-10-31T12:00:50;16.90;99.90
56240;DHT22;42154;51.992;5.896;2022-10-31T12:06:25;17.00;99.90
56240;DHT22;42154;51.992;5.896;2022-10-31T12:08:53;17.00;99.90
56240;DHT22;42154;51.992;5.896;2022-10-31T12:11:52;17.00;99.90
56240;DHT22;42154;51.992;5.896;2022-10-31T12:14:44;17.10;99.90
56240;DHT22;42154;51.992;5.896;2022-10-31T12:17:18;17.00;99.90
56240;DHT22;42154;51.992;5.896;2022-10-31T12:19:56;17.10;99.90
56240;DHT22;42154;51.992;5.896;2022-10-31T12:25:21;17.30;99.90
56240;DHT22;42154;51.992;5.896;2022-10-31T12:33:12;17.40;99.90
56240;DHT22;42154;51.992;5.896;2022-10-31T12:35:44;17.40;99.90
56240;DHT22;42154;51.992;5.896;2022-10-31T12:44:02;17.40;99.90
56240;DHT22;42154;51.992;5.896;2022-10-31T12:50:12;17.50;99.90
56240;DHT22;42154;51.992;5.896;2022-10-31T12:52:45;17.50;99.90
56240;DHT22;42154;51.992;5.896;2022-10-31T12:55:32;17.50;99.90
56240;DHT22;42154;51.992;5.896;2022-10-31T12:58:12;17.60;99.90
56240;DHT22;42154;51.992;5.896;2022-10-31T13:00:44;17.60;99.90
56240;DHT22;42154;51.992;5.896;2022-10-31T13:03:24;17.60;99.90
56240;DHT22;42154;51.992;5.896;2022-10-31T13:05:58;17.70;99.90
56240;DHT22;42154;51.992;5.896;2022-10-31T13:08:47;17.70;99.90
56240;DHT22;42154;51.992;5.896;2022-10-31T13:11:22;17.80;99.90
56240;DHT22;42154;51.992;5.896;2022-10-31T13:16:43;17.90;99.90
56240;DHT22;42154;51.992;5.896;2022-10-31T13:19:30;18.00;99.90
56240;DHT22;42154;51.992;5.896;2022-10-31T13:22:07;18.00;99.90
56240;DHT22;42154;51.992;5.896;2022-10-31T13:24:41;18.00;99.90
56240;DHT22;42154;51.992;5.896;2022-10-31T13:27:14;18.10;99.90
56240;DHT22;42154;51.992;5.896;2022-10-31T13:32:15;18.00;99.90
56240;DHT22;42154;51.992;5.896;2022-10-31T13:34:50;18.00;99.90
56240;DHT22;42154;51.992;5.896;2022-10-31T13:37:48;17.90;99.90
56240;DHT22;42154;51.992;5.896;2022-10-31T13:40:43;18.00;99.90
56240;DHT22;42154;51.992;5.896;2022-10-31T13:45:58;17.90;99.90
56240;DHT22;42154;51.992;5.896;2022-10-31T13:53:34;18.00;99.90
56240;DHT22;42154;51.992;5.896;2022-10-31T13:56:26;18.00;99.90
56240;DHT22;42154;51.992;5.896;2022-10-31T13:59:13;18.00;99.90
56240;DHT22;42154;51.992;5.896;2022-10-31T14:02:15;18.00;99.90
56240;DHT22;42154;51.992;5.896;2022-10-31T14:04:48;18.00;99.90
56240;DHT22;42154;51.992;5.896;2022-10-31T14:07:22;18.00;99.90
56240;DHT22;42154;51.992;5.896;2022-10-31T14:10:02;18.00;99.90
56240;DHT22;42154;51.992;5.896;2022-10-31T14:12:43;17.90;99.90
56240;DHT22;42154;51.992;5.896;2022-10-31T14:15:25;18.00;99.90
56240;DHT22;42154;51.992;5.896;2022-10-31T14:17:58;17.90;99.90
56240;DHT22;42154;51.992;5.896;2022-10-31T14:28:43;17.90;99.90
56240;DHT22;42154;51.992;5.896;2022-10-31T14:34:01;17.80;99.90
56240;DHT22;42154;51.992;5.896;2022-10-31T14:37:04;17.80;99.90
56240;DHT22;42154;51.992;5.896;2022-10-31T14:45:37;17.80;99.90
56240;DHT22;42154;51.992;5.896;2022-10-31T14:50:57;17.70;99.90
56240;DHT22;42154;51.992;5.896;2022-10-31T14:53:45;17.70;99.90
56240;DHT22;42154;51.992;5.896;2022-10-31T14:56:12;17.60;99.90
56240;DHT22;42154;51.992;5.896;2022-10-31T14:58:46;17.60;99.90
56240;DHT22;42154;51.992;5.896;2022-10-31T15:01:25;17.60;99.90
56240;DHT22;42154;51.992;5.896;2022-10-31T15:03:55;17.60;99.90
56240;DHT22;42154;51.992;5.896;2022-10-31T15:06:23;17.60;99.90
56240;DHT22;42154;51.992;5.896;2022-10-31T15:08:52;17.60;99.90
56240;DHT22;42154;51.992;5.896;2022-10-31T15:11:26;17.50;99.90
56240;DHT22;42154;51.992;5.896;2022-10-31T15:13:54;17.50;99.90
56240;DHT22;42154;51.992;5.896;2022-10-31T15:16:25;17.50;99.90
56240;DHT22;42154;51.992;5.896;2022-10-31T15:21:21;17.40;99.90
56240;DHT22;42154;51.992;5.896;2022-10-31T15:23:50;17.40;99.90
56240;DHT22;42154;51.992;5.896;2022-10-31T15:26:22;17.40;99.90
56240;DHT22;42154;51.992;5.896;2022-10-31T15:29:19;17.30;99.90
56240;DHT22;42154;51.992;5.896;2022-10-31T15:31:59;17.30;99.90
56240;DHT22;42154;51.992;5.896;2022-10-31T15:36:56;17.20;99.90
56240;DHT22;42154;51.992;5.896;2022-10-31T15:39:22;17.20;99.90
56240;DHT22;42154;51.992;5.896;2022-10-31T15:41:52;17.10;99.90
56240;DHT22;42154;51.992;5.896;2022-10-31T15:44:33;17.20;99.90
56240;DHT22;42154;51.992;5.896;2022-10-31T15:47:16;17.10;99.90
56240;DHT22;42154;51.992;5.896;2022-10-31T15:49:48;17.10;99.90
56240;DHT22;42154;51.992;5.896;2022-10-31T15:52:41;17.10;99.90
56240;DHT22;42154;51.992;5.896;2022-10-31T15:57:43;17.00;99.90
56240;DHT22;42154;51.992;5.896;2022-10-31T16:00:33;17.00;99.90
56240;DHT22;42154;51.992;5.896;2022-10-31T16:03:08;17.00;99.90
56240;DHT22;42154;51.992;5.896;2022-10-31T16:13:38;16.90;99.90
56240;DHT22;42154;51.992;5.896;2022-10-31T16:16:15;16.80;99.90
56240;DHT22;42154;51.992;5.896;2022-10-31T16:18:42;16.80;99.90
56240;DHT22;42154;51.992;5.896;2022-10-31T16:21:08;16.80;99.90
56240;DHT22;42154;51.992;5.896;2022-10-31T16:23:37;16.80;99.90
56240;DHT22;42154;51.992;5.896;2022-10-31T16:26:07;16.80;99.90
56240;DHT22;42154;51.992;5.896;2022-10-31T16:28:33;16.70;99.90
56240;DHT22;42154;51.992;5.896;2022-10-31T16:30:59;16.70;99.90
56240;DHT22;42154;51.992;5.896;2022-10-31T16:33:29;16.70;99.90
56240;DHT22;42154;51.992;5.896;2022-10-31T16:36:00;16.70;99.90
56240;DHT22;42154;51.992;5.896;2022-10-31T16:38:27;16.70;99.90
56240;DHT22;42154;51.992;5.896;2022-10-31T16:40:53;16.70;99.90
56240;DHT22;42154;51.992;5.896;2022-10-31T16:43:20;16.70;99.90
56240;DHT22;42154;51.992;5.896;2022-10-31T16:45:50;16.70;99.90
56240;DHT22;42154;51.992;5.896;2022-10-31T16:48:18;16.70;99.90
56240;DHT22;42154;51.992;5.896;2022-10-31T16:50:46;16.70;99.90
56240;DHT22;42154;51.992;5.896;2022-10-31T16:53:13;16.60;99.90
56240;DHT22;42154;51.992;5.896;2022-10-31T16:55:52;16.60;99.90
56240;DHT22;42154;51.992;5.896;2022-10-31T16:58:25;16.60;99.90
56240;DHT22;42154;51.992;5.896;2022-10-31T17:00:52;16.50;99.90
56240;DHT22;42154;51.992;5.896;2022-10-31T17:03:18;16.50;99.90
56240;DHT22;42154;51.992;5.896;2022-10-31T17:05:44;16.40;99.90
56240;DHT22;42154;51.992;5.896;2022-10-31T17:08:10;16.40;99.90
56240;DHT22;42154;51.992;5.896;2022-10-31T17:10:36;16.30;99.90
56240;DHT22;42154;51.992;5.896;2022-10-31T17:13:03;16.20;99.90
56240;DHT22;42154;51.992;5.896;2022-10-31T17:15:38;16.20;99.90
56240;DHT22;42154;51.992;5.896;2022-10-31T17:18:05;16.20;99.90
56240;DHT22;42154;51.992;5.896;2022-10-31T17:20:31;16.10;99.90
56240;DHT22;42154;51.992;5.896;2022-10-31T17:22:58;16.10;99.90
56240;DHT22;42154;51.992;5.896;2022-10-31T17:25:26;16.00;99.90
56240;DHT22;42154;51.992;5.896;2022-10-31T17:27:53;16.00;99.90
56240;DHT22;42154;51.992;5.896;2022-10-31T17:30:19;16.00;99.90
56240;DHT22;42154;51.992;5.896;2022-10-31T17:32:47;16.00;99.90
56240;DHT22;42154;51.992;5.896;2022-10-31T17:35:15;15.90;99.90
56240;DHT22;42154;51.992;5.896;2022-10-31T17:37:42;15.90;99.90
56240;DHT22;42154;51.992;5.896;2022-10-31T17:40:09;15.90;99.90
56240;DHT22;42154;51.992;5.896;2022-10-31T17:42:35;15.80;99.90
56240;DHT22;42154;51.992;5.896;2022-10-31T17:45:01;15.80;99.90
56240;DHT22;42154;51.992;5.896;2022-10-31T17:47:27;15.80;99.90
56240;DHT22;42154;51.992;5.896;2022-10-31T17:49:52;15.80;99.90
56240;DHT22;42154;51.992;5.896;2022-10-31T17:52:18;15.80;99.90
56240;DHT22;42154;51.992;5.896;2022-10-31T17:54:44;15.80;99.90
56240;DHT22;42154;51.992;5.896;2022-10-31T17:57:10;15.70;99.90
56240;DHT22;42154;51.992;5.896;2022-10-31T17:59:36;15.80;99.90
56240;DHT22;42154;51.992;5.896;2022-10-31T18:02:02;15.70;99.90
56240;DHT22;42154;51.992;5.896;2022-10-31T18:04:34;15.80;99.90
56240;DHT22;42154;51.992;5.896;2022-10-31T18:07:00;15.70;99.90
56240;DHT22;42154;51.992;5.896;2022-10-31T18:09:26;15.80;99.90